Strona główna
METAR-TAF:

METAR-TAF

Lotnisko :

Nancy, Francja

Szerokość geograficzna: 48-41N, Długość geograficzna: 006-13E, wysokość: 225 m

Aktualna obserwacja pogody

Raport powstał 25 minut temu, godzina 09:00 UTC
Wiatr 5 kt od zachód, zmienny między zachodnio-południowy zachód i północny zachód
Temperatura 16°C
Wilgotność 82%
Ciśnienie 997 hPa
Widzialność 10 km lub więcej

METAR: LFSN 040900Z AUTO 27005KT 240V310 9999 BKN014/// BKN027/// BKN058/// 16/13 Q0997

czas: 11:25 (09:25 UTC)


TAF: brakujący

Obserwacja i prognoza pogody dla ponad 4000 lotnisk (raport METAR i TAF).

Dostępne stacje oznaczono żółtymi i czerwonymi punktami na mapie.

Najedź kursorem aby zobaczyć nazwę stacji.

Kliknij aby zobaczyć obserwacje i prognozy pogody.

Aby zmienić mapę: kliknij na zielony przycisk z czarnym krzyżykiem, aby powiększyć; na zielony przycisk z myślnikiem, aby pomniejszyć; na zielone strzałki, aby przejść do map sąsiednich.


METAR-TAF: